sensor_id;sensor_type;location;lat;lon;timestamp;pressure;altitude;pressure_sealevel;temperature;humidity
10510;BME280;5303;53.266;10.410;2023-05-07T00:00:45;101908.09;;;8.71;77.05
10510;BME280;5303;53.266;10.410;2023-05-07T00:03:11;101902.19;;;8.81;76.94
10510;BME280;5303;53.266;10.410;2023-05-07T00:05:36;101908.09;;;8.71;77.72
10510;BME280;5303;53.266;10.410;2023-05-07T00:08:03;101910.84;;;8.77;77.91
10510;BME280;5303;53.266;10.410;2023-05-07T00:10:28;101915.22;;;8.76;76.86
10510;BME280;5303;53.266;10.410;2023-05-07T00:12:53;101908.13;;;8.72;78.02
10510;BME280;5303;53.266;10.410;2023-05-07T00:15:19;101912.47;;;8.70;77.99
10510;BME280;5303;53.266;10.410;2023-05-07T00:17:44;101905.53;;;8.74;77.84
10510;BME280;5303;53.266;10.410;2023-05-07T00:20:10;101906.44;;;8.76;77.27
10510;BME280;5303;53.266;10.410;2023-05-07T00:22:35;101908.06;;;8.69;77.35
10510;BME280;5303;53.266;10.410;2023-05-07T00:25:01;101905.16;;;8.98;76.85
10510;BME280;5303;53.266;10.410;2023-05-07T00:27:26;101907.31;;;8.75;76.94
10510;BME280;5303;53.266;10.410;2023-05-07T00:29:51;101896.75;;;8.73;77.75
10510;BME280;5303;53.266;10.410;2023-05-07T00:32:16;101904.69;;;8.76;77.51
10510;BME280;5303;53.266;10.410;2023-05-07T00:34:43;101898.44;;;8.70;77.24
10510;BME280;5303;53.266;10.410;2023-05-07T00:37:08;101902.22;;;8.82;76.71
10510;BME280;5303;53.266;10.410;2023-05-07T00:39:35;101906.16;;;9.03;74.66
10510;BME280;5303;53.266;10.410;2023-05-07T00:42:01;101904.06;;;8.88;76.04
10510;BME280;5303;53.266;10.410;2023-05-07T00:44:26;101897.38;;;9.02;74.95
10510;BME280;5303;53.266;10.410;2023-05-07T00:46:52;101897.13;;;8.90;74.97
10510;BME280;5303;53.266;10.410;2023-05-07T00:49:18;101895.41;;;8.92;75.49
10510;BME280;5303;53.266;10.410;2023-05-07T00:51:45;101892.56;;;8.83;75.17
10510;BME280;5303;53.266;10.410;2023-05-07T00:54:11;101895.06;;;8.77;76.51
10510;BME280;5303;53.266;10.410;2023-05-07T00:56:36;101890.19;;;8.95;75.08
10510;BME280;5303;53.266;10.410;2023-05-07T00:59:03;101897.13;;;8.90;74.87
10510;BME280;5303;53.266;10.410;2023-05-07T01:01:28;101896.31;;;8.94;75.21
10510;BME280;5303;53.266;10.410;2023-05-07T01:03:54;101888.41;;;8.94;76.28
10510;BME280;5303;53.266;10.410;2023-05-07T01:06:20;101890.91;;;8.88;76.81
10510;BME280;5303;53.266;10.410;2023-05-07T01:08:48;101888.41;;;8.94;75.62
10510;BME280;5303;53.266;10.410;2023-05-07T01:11:16;101882.19;;;8.89;75.66
10510;BME280;5303;53.266;10.410;2023-05-07T01:13:42;101882.84;;;8.79;76.88
10510;BME280;5303;53.266;10.410;2023-05-07T01:16:08;101884.81;;;8.89;75.86
10510;BME280;5303;53.266;10.410;2023-05-07T01:18:34;101883.91;;;8.88;75.28
10510;BME280;5303;53.266;10.410;2023-05-07T01:21:01;101879.66;;;8.95;75.92
10510;BME280;5303;53.266;10.410;2023-05-07T01:23:29;101890.38;;;9.04;74.81
10510;BME280;5303;53.266;10.410;2023-05-07T01:25:55;101886.44;;;8.84;75.91
10510;BME280;5303;53.266;10.410;2023-05-07T01:28:21;101885.84;;;8.97;74.76
10510;BME280;5303;53.266;10.410;2023-05-07T01:30:55;101876.66;;;8.78;75.08
10510;BME280;5303;53.266;10.410;2023-05-07T01:33:21;101882.75;;;8.74;76.47
10510;BME280;5303;53.266;10.410;2023-05-07T01:35:51;101878.75;;;8.93;75.52
10510;BME280;5303;53.266;10.410;2023-05-07T01:38:18;101869.75;;;8.82;74.84
10510;BME280;5303;53.266;10.410;2023-05-07T01:40:44;101886.69;;;8.94;74.50
10510;BME280;5303;53.266;10.410;2023-05-07T01:43:10;101878.94;;;9.02;73.51
10510;BME280;5303;53.266;10.410;2023-05-07T01:45:35;101879.38;;;8.81;74.49
10510;BME280;5303;53.266;10.410;2023-05-07T01:48:02;101882.66;;;8.70;75.14
10510;BME280;5303;53.266;10.410;2023-05-07T01:50:28;101873.81;;;8.68;75.99
10510;BME280;5303;53.266;10.410;2023-05-07T01:52:55;101881.38;;;8.91;74.72
10510;BME280;5303;53.266;10.410;2023-05-07T01:55:20;101883.78;;;8.82;74.79
10510;BME280;5303;53.266;10.410;2023-05-07T01:57:45;101888.19;;;8.83;74.66
10510;BME280;5303;53.266;10.410;2023-05-07T02:00:11;101887.13;;;8.75;75.02
10510;BME280;5303;53.266;10.410;2023-05-07T02:02:36;101897.66;;;8.75;75.08
10510;BME280;5303;53.266;10.410;2023-05-07T02:05:03;101887.47;;;8.89;74.53
10510;BME280;5303;53.266;10.410;2023-05-07T02:07:29;101901.97;;;8.72;75.04
10510;BME280;5303;53.266;10.410;2023-05-07T02:09:54;101898.28;;;8.63;75.38
10510;BME280;5303;53.266;10.410;2023-05-07T02:12:20;101902.44;;;8.54;76.20
10510;BME280;5303;53.266;10.410;2023-05-07T02:14:46;101904.56;;;8.69;75.81
10510;BME280;5303;53.266;10.410;2023-05-07T02:17:11;101899.09;;;8.59;75.87
10510;BME280;5303;53.266;10.410;2023-05-07T02:19:36;101910.72;;;8.71;75.57
10510;BME280;5303;53.266;10.410;2023-05-07T02:22:02;101910.53;;;8.61;75.88
10510;BME280;5303;53.266;10.410;2023-05-07T02:24:27;101912.25;;;8.59;75.55
10510;BME280;5303;53.266;10.410;2023-05-07T02:26:52;101911.28;;;8.57;76.51
10510;BME280;5303;53.266;10.410;2023-05-07T02:29:17;101910.59;;;8.64;75.81
10510;BME280;5303;53.266;10.410;2023-05-07T02:31:43;101907.44;;;8.81;74.43
10510;BME280;5303;53.266;10.410;2023-05-07T02:34:08;101920.47;;;8.76;74.54
10510;BME280;5303;53.266;10.410;2023-05-07T02:36:33;101925.06;;;8.85;74.26
10510;BME280;5303;53.266;10.410;2023-05-07T02:38:58;101914.53;;;8.85;74.06
10510;BME280;5303;53.266;10.410;2023-05-07T02:41:24;101921.25;;;8.71;75.15
10510;BME280;5303;53.266;10.410;2023-05-07T02:43:49;101920.59;;;8.81;74.68
10510;BME280;5303;53.266;10.410;2023-05-07T02:46:14;101923.16;;;8.78;75.38
10510;BME280;5303;53.266;10.410;2023-05-07T02:48:40;101912.78;;;8.85;74.40
10510;BME280;5303;53.266;10.410;2023-05-07T02:51:06;101911.13;;;8.89;74.28
10510;BME280;5303;53.266;10.410;2023-05-07T02:53:31;101918.50;;;8.66;74.96
10510;BME280;5303;53.266;10.410;2023-05-07T02:55:57;101918.41;;;8.61;75.45
10510;BME280;5303;53.266;10.410;2023-05-07T02:58:23;101917.88;;;8.78;75.55
10510;BME280;5303;53.266;10.410;2023-05-07T03:00:48;101914.28;;;8.73;74.76
10510;BME280;5303;53.266;10.410;2023-05-07T03:03:14;101913.91;;;8.57;75.85
10510;BME280;5303;53.266;10.410;2023-05-07T03:05:40;101917.34;;;8.53;76.50
10510;BME280;5303;53.266;10.410;2023-05-07T03:08:06;101910.41;;;8.57;76.43
10510;BME280;5303;53.266;10.410;2023-05-07T03:10:31;101914.09;;;8.65;76.19
10510;BME280;5303;53.266;10.410;2023-05-07T03:12:56;101911.28;;;8.57;76.41
10510;BME280;5303;53.266;10.410;2023-05-07T03:15:22;101912.97;;;8.54;76.29
10510;BME280;5303;53.266;10.410;2023-05-07T03:17:48;101908.59;;;8.54;76.42
10510;BME280;5303;53.266;10.410;2023-05-07T03:20:13;101921.81;;;8.57;76.09
10510;BME280;5303;53.266;10.410;2023-05-07T03:22:39;101914.97;;;8.64;75.81
10510;BME280;5303;53.266;10.410;2023-05-07T03:25:04;101921.00;;;8.60;75.86
10510;BME280;5303;53.266;10.410;2023-05-07T03:27:30;101917.50;;;8.59;76.09
10510;BME280;5303;53.266;10.410;2023-05-07T03:29:55;101923.94;;;8.74;75.25
10510;BME280;5303;53.266;10.410;2023-05-07T03:32:20;101914.25;;;8.71;75.27
10510;BME280;5303;53.266;10.410;2023-05-07T03:34:46;101924.84;;;8.76;75.29
10510;BME280;5303;53.266;10.410;2023-05-07T03:37:11;101917.75;;;8.70;74.51
10510;BME280;5303;53.266;10.410;2023-05-07T03:39:36;101917.53;;;8.61;75.61
10510;BME280;5303;53.266;10.410;2023-05-07T03:42:02;101922.66;;;8.56;75.56
10510;BME280;5303;53.266;10.410;2023-05-07T03:44:28;101922.59;;;8.53;75.87
10510;BME280;5303;53.266;10.410;2023-05-07T03:46:53;101917.34;;;8.53;76.13
10510;BME280;5303;53.266;10.410;2023-05-07T03:49:18;101926.25;;;8.58;76.21
10510;BME280;5303;53.266;10.410;2023-05-07T03:51:43;101915.97;;;8.69;75.58
10510;BME280;5303;53.266;10.410;2023-05-07T03:54:09;101921.09;;;8.64;75.28
10510;BME280;5303;53.266;10.410;2023-05-07T03:56:34;101921.16;;;8.68;75.45
10510;BME280;5303;53.266;10.410;2023-05-07T03:59:00;101925.53;;;8.67;75.96
10510;BME280;5303;53.266;10.410;2023-05-07T04:01:25;101913.25;;;8.66;76.18
10510;BME280;5303;53.266;10.410;2023-05-07T04:03:51;101926.41;;;8.68;75.38
10510;BME280;5303;53.266;10.410;2023-05-07T04:06:16;101928.22;;;8.69;76.17
10510;BME280;5303;53.266;10.410;2023-05-07T04:08:44;101931.69;;;8.68;75.71
10510;BME280;5303;53.266;10.410;2023-05-07T04:11:09;101923.88;;;8.71;75.57
10510;BME280;5303;53.266;10.410;2023-05-07T04:13:35;101926.41;;;8.68;76.32
10510;BME280;5303;53.266;10.410;2023-05-07T04:16:02;101920.25;;;8.65;75.68
10510;BME280;5303;53.266;10.410;2023-05-07T04:18:27;101922.81;;;8.62;76.76
10510;BME280;5303;53.266;10.410;2023-05-07T04:20:53;101930.84;;;8.69;76.19
10510;BME280;5303;53.266;10.410;2023-05-07T04:23:18;101931.13;;;8.81;75.74
10510;BME280;5303;53.266;10.410;2023-05-07T04:25:44;101935.56;;;8.83;75.45
10510;BME280;5303;53.266;10.410;2023-05-07T04:28:10;101939.69;;;8.72;74.84
10510;BME280;5303;53.266;10.410;2023-05-07T04:30:36;101933.97;;;8.90;74.83
10510;BME280;5303;53.266;10.410;2023-05-07T04:33:01;101927.03;;;8.95;74.50
10510;BME280;5303;53.266;10.410;2023-05-07T04:35:26;101939.13;;;8.87;75.20
10510;BME280;5303;53.266;10.410;2023-05-07T04:37:52;101931.91;;;8.78;75.57
10510;BME280;5303;53.266;10.410;2023-05-07T04:40:17;101935.38;;;8.76;76.05
10510;BME280;5303;53.266;10.410;2023-05-07T04:42:42;101936.63;;;8.91;75.39
10510;BME280;5303;53.266;10.410;2023-05-07T04:45:08;101936.47;;;8.85;74.76
10510;BME280;5303;53.266;10.410;2023-05-07T04:47:35;101943.59;;;8.89;75.13
10510;BME280;5303;53.266;10.410;2023-05-07T04:50:00;101948.81;;;8.88;75.02
10510;BME280;5303;53.266;10.410;2023-05-07T04:52:26;101945.66;;;9.04;74.28
10510;BME280;5303;53.266;10.410;2023-05-07T04:54:51;101946.72;;;9.12;74.04
10510;BME280;5303;53.266;10.410;2023-05-07T04:57:17;101950.91;;;9.03;74.99
10510;BME280;5303;53.266;10.410;2023-05-07T04:59:43;101956.22;;;9.06;75.00
10510;BME280;5303;53.266;10.410;2023-05-07T05:02:10;101950.22;;;9.11;73.87
10510;BME280;5303;53.266;10.410;2023-05-07T05:04:35;101951.72;;;9.00;73.78
10510;BME280;5303;53.266;10.410;2023-05-07T05:07:00;101955.25;;;9.01;74.65
10510;BME280;5303;53.266;10.410;2023-05-07T05:09:25;101956.03;;;8.98;74.27
10510;BME280;5303;53.266;10.410;2023-05-07T05:11:51;101956.78;;;8.91;75.30
10510;BME280;5303;53.266;10.410;2023-05-07T05:14:16;101952.31;;;9.29;72.75
10510;BME280;5303;53.266;10.410;2023-05-07T05:16:41;101969.41;;;9.07;74.00
10510;BME280;5303;53.266;10.410;2023-05-07T05:19:07;101952.03;;;9.15;73.61
10510;BME280;5303;53.266;10.410;2023-05-07T05:21:32;101964.13;;;9.06;73.28
10510;BME280;5303;53.266;10.410;2023-05-07T05:23:58;101959.13;;;9.19;73.52
10510;BME280;5303;53.266;10.410;2023-05-07T05:26:23;101960.06;;;9.21;73.19
10510;BME280;5303;53.266;10.410;2023-05-07T05:28:48;101963.41;;;9.13;73.57
10510;BME280;5303;53.266;10.410;2023-05-07T05:31:13;101964.13;;;9.07;73.70
10510;BME280;5303;53.266;10.410;2023-05-07T05:33:39;101962.50;;;9.12;74.38
10510;BME280;5303;53.266;10.410;2023-05-07T05:36:05;101968.44;;;9.02;74.43
10510;BME280;5303;53.266;10.410;2023-05-07T05:38:31;101965.91;;;9.08;74.10
10510;BME280;5303;53.266;10.410;2023-05-07T05:40:56;101971.28;;;9.11;74.51
10510;BME280;5303;53.266;10.410;2023-05-07T05:43:21;101968.94;;;9.27;73.88
10510;BME280;5303;53.266;10.410;2023-05-07T05:45:47;101973.44;;;9.31;72.73
10510;BME280;5303;53.266;10.410;2023-05-07T05:48:12;101965.47;;;9.29;72.87
10510;BME280;5303;53.266;10.410;2023-05-07T05:50:37;101969.31;;;9.43;72.69
10510;BME280;5303;53.266;10.410;2023-05-07T05:53:03;101977.03;;;9.36;72.68
10510;BME280;5303;53.266;10.410;2023-05-07T05:55:28;101979.13;;;9.52;72.14
10510;BME280;5303;53.266;10.410;2023-05-07T05:57:53;101987.72;;;9.42;72.69
10510;BME280;5303;53.266;10.410;2023-05-07T06:00:19;101981.19;;;9.24;73.63
10510;BME280;5303;53.266;10.410;2023-05-07T06:02:47;101990.66;;;9.16;74.14
10510;BME280;5303;53.266;10.410;2023-05-07T06:05:12;101992.53;;;9.20;74.21
10510;BME280;5303;53.266;10.410;2023-05-07T06:07:38;101990.69;;;9.18;74.67
10510;BME280;5303;53.266;10.410;2023-05-07T06:10:03;101986.53;;;9.29;73.95
10510;BME280;5303;53.266;10.410;2023-05-07T06:12:29;101991.72;;;9.24;73.79
10510;BME280;5303;53.266;10.410;2023-05-07T06:14:54;101989.03;;;9.21;74.77
10510;BME280;5303;53.266;10.410;2023-05-07T06:17:20;101988.22;;;9.24;74.07
10510;BME280;5303;53.266;10.410;2023-05-07T06:19:45;101995.31;;;9.30;74.45
10510;BME280;5303;53.266;10.410;2023-05-07T06:22:10;101989.41;;;9.40;73.33
10510;BME280;5303;53.266;10.410;2023-05-07T06:24:36;101996.34;;;9.36;74.27
10510;BME280;5303;53.266;10.410;2023-05-07T06:27:01;101989.50;;;9.44;73.21
10510;BME280;5303;53.266;10.410;2023-05-07T06:29:26;101998.09;;;9.36;73.52
10510;BME280;5303;53.266;10.410;2023-05-07T06:31:54;101993.69;;;9.35;73.85
10510;BME280;5303;53.266;10.410;2023-05-07T06:34:20;102001.78;;;9.44;73.77
10510;BME280;5303;53.266;10.410;2023-05-07T06:36:45;101997.47;;;9.47;73.97
10510;BME280;5303;53.266;10.410;2023-05-07T06:39:10;101997.78;;;9.63;72.63
10510;BME280;5303;53.266;10.410;2023-05-07T06:41:35;101991.00;;;9.75;72.22
10510;BME280;5303;53.266;10.410;2023-05-07T06:44:02;101992.81;;;9.79;71.12
10510;BME280;5303;53.266;10.410;2023-05-07T06:46:28;101994.38;;;9.68;71.77
10510;BME280;5303;53.266;10.410;2023-05-07T06:48:53;101994.53;;;9.76;71.27
10510;BME280;5303;53.266;10.410;2023-05-07T06:51:19;102003.09;;;9.66;71.99
10510;BME280;5303;53.266;10.410;2023-05-07T06:53:44;101990.88;;;9.69;71.60
10510;BME280;5303;53.266;10.410;2023-05-07T06:56:09;101999.56;;;9.64;71.80
10510;BME280;5303;53.266;10.410;2023-05-07T06:58:35;102002.16;;;9.62;72.19
10510;BME280;5303;53.266;10.410;2023-05-07T07:01:00;101998.00;;;9.73;71.68
10510;BME280;5303;53.266;10.410;2023-05-07T07:03:25;102004.22;;;9.78;70.83
10510;BME280;5303;53.266;10.410;2023-05-07T07:05:52;102005.00;;;9.73;71.61
10510;BME280;5303;53.266;10.410;2023-05-07T07:08:18;102002.41;;;9.74;71.03
10510;BME280;5303;53.266;10.410;2023-05-07T07:10:43;102007.03;;;9.86;70.71
10510;BME280;5303;53.266;10.410;2023-05-07T07:13:08;102007.84;;;9.82;70.94
10510;BME280;5303;53.266;10.410;2023-05-07T07:15:33;102010.59;;;9.90;70.80
10510;BME280;5303;53.266;10.410;2023-05-07T07:17:59;101995.75;;;9.93;71.57
10510;BME280;5303;53.266;10.410;2023-05-07T07:20:24;102006.31;;;9.95;71.42
10510;BME280;5303;53.266;10.410;2023-05-07T07:22:49;102002.09;;;10.04;70.07
10510;BME280;5303;53.266;10.410;2023-05-07T07:25:15;102011.03;;;10.13;69.66
10510;BME280;5303;53.266;10.410;2023-05-07T07:27:40;102009.41;;;10.21;70.03
10510;BME280;5303;53.266;10.410;2023-05-07T07:30:06;102016.50;;;10.22;70.06
10510;BME280;5303;53.266;10.410;2023-05-07T07:32:31;102008.50;;;10.20;69.90
10510;BME280;5303;53.266;10.410;2023-05-07T07:34:58;102004.97;;;10.18;69.36
10510;BME280;5303;53.266;10.410;2023-05-07T07:37:23;102010.28;;;10.21;69.85
10510;BME280;5303;53.266;10.410;2023-05-07T07:39:50;102009.41;;;10.21;69.91
10510;BME280;5303;53.266;10.410;2023-05-07T07:42:15;102018.38;;;10.29;69.11
10510;BME280;5303;53.266;10.410;2023-05-07T07:44:41;102009.78;;;10.41;69.34
10510;BME280;5303;53.266;10.410;2023-05-07T07:47:06;102005.28;;;10.33;69.80
10510;BME280;5303;53.266;10.410;2023-05-07T07:49:32;102010.63;;;10.39;69.00
10510;BME280;5303;53.266;10.410;2023-05-07T07:51:57;102007.22;;;10.44;69.32
10510;BME280;5303;53.266;10.410;2023-05-07T07:54:24;102014.34;;;10.51;69.70
10510;BME280;5303;53.266;10.410;2023-05-07T07:56:50;102012.66;;;10.53;69.62
10510;BME280;5303;53.266;10.410;2023-05-07T07:59:15;102009.31;;;10.64;69.09
10510;BME280;5303;53.266;10.410;2023-05-07T08:01:43;102013.63;;;10.61;69.42
10510;BME280;5303;53.266;10.410;2023-05-07T08:04:09;102013.75;;;10.67;68.77
10510;BME280;5303;53.266;10.410;2023-05-07T08:06:34;102018.28;;;10.77;68.39
10510;BME280;5303;53.266;10.410;2023-05-07T08:09:00;102018.22;;;10.73;68.97
10510;BME280;5303;53.266;10.410;2023-05-07T08:11:26;102019.91;;;10.69;68.55
10510;BME280;5303;53.266;10.410;2023-05-07T08:13:51;102014.44;;;10.57;68.67
10510;BME280;5303;53.266;10.410;2023-05-07T08:16:17;102026.91;;;10.64;69.30
10510;BME280;5303;53.266;10.410;2023-05-07T08:18:42;102022.69;;;10.77;68.24
10510;BME280;5303;53.266;10.410;2023-05-07T08:21:07;102021.97;;;10.88;67.62
10510;BME280;5303;53.266;10.410;2023-05-07T08:23:33;102014.94;;;10.87;68.53
10510;BME280;5303;53.266;10.410;2023-05-07T08:26:01;102027.16;;;10.82;68.67
10510;BME280;5303;53.266;10.410;2023-05-07T08:28:26;102019.47;;;10.98;68.69
10510;BME280;5303;53.266;10.410;2023-05-07T08:30:51;102024.69;;;10.93;68.22
10510;BME280;5303;53.266;10.410;2023-05-07T08:33:16;102023.13;;;11.06;67.83
10510;BME280;5303;53.266;10.410;2023-05-07T08:35:42;102016.09;;;11.08;67.62
10510;BME280;5303;53.266;10.410;2023-05-07T08:38:07;102028.69;;;11.25;66.91
10510;BME280;5303;53.266;10.410;2023-05-07T08:40:36;102031.19;;;11.15;66.88
10510;BME280;5303;53.266;10.410;2023-05-07T08:43:02;102034.84;;;11.26;66.41
10510;BME280;5303;53.266;10.410;2023-05-07T08:45:30;102034.03;;;11.30;66.60
10510;BME280;5303;53.266;10.410;2023-05-07T08:48:05;102045.63;;;11.43;66.92
10510;BME280;5303;53.266;10.410;2023-05-07T08:50:35;102044.00;;;11.52;65.53
10510;BME280;5303;53.266;10.410;2023-05-07T08:53:02;102042.19;;;11.48;65.38
10510;BME280;5303;53.266;10.410;2023-05-07T08:55:28;102048.34;;;11.46;65.31
10510;BME280;5303;53.266;10.410;2023-05-07T08:57:53;102056.31;;;11.52;65.83
10510;BME280;5303;53.266;10.410;2023-05-07T09:00:19;102047.66;;;11.64;66.14
10510;BME280;5303;53.266;10.410;2023-05-07T09:02:44;102051.28;;;11.72;64.31
10510;BME280;5303;53.266;10.410;2023-05-07T09:05:09;102052.13;;;11.66;64.23
10510;BME280;5303;53.266;10.410;2023-05-07T09:07:35;102054.84;;;11.74;64.61
10510;BME280;5303;53.266;10.410;2023-05-07T09:10:04;102051.31;;;11.75;64.56
10510;BME280;5303;53.266;10.410;2023-05-07T09:12:29;102062.44;;;11.46;64.55
10510;BME280;5303;53.266;10.410;2023-05-07T09:14:55;102067.63;;;11.42;65.67
10510;BME280;5303;53.266;10.410;2023-05-07T09:17:20;102060.59;;;11.42;65.27
10510;BME280;5303;53.266;10.410;2023-05-07T09:19:45;102065.13;;;11.52;65.24
10510;BME280;5303;53.266;10.410;2023-05-07T09:22:11;102059.97;;;11.62;65.25
10510;BME280;5303;53.266;10.410;2023-05-07T09:24:37;102060.00;;;11.63;65.68
10510;BME280;5303;53.266;10.410;2023-05-07T09:27:06;102067.16;;;11.72;64.74
10510;BME280;5303;53.266;10.410;2023-05-07T09:29:32;102065.47;;;11.77;63.44
10510;BME280;5303;53.266;10.410;2023-05-07T09:32:05;102062.81;;;11.75;63.66
10510;BME280;5303;53.266;10.410;2023-05-07T09:34:30;102063.69;;;11.76;64.47
10510;BME280;5303;53.266;10.410;2023-05-07T09:36:57;102064.69;;;11.84;64.85
10510;BME280;5303;53.266;10.410;2023-05-07T09:39:23;102072.81;;;11.99;64.51
10510;BME280;5303;53.266;10.410;2023-05-07T09:41:49;102071.97;;;12.03;64.62
10510;BME280;5303;53.266;10.410;2023-05-07T09:44:16;102070.25;;;12.07;63.67
10510;BME280;5303;53.266;10.410;2023-05-07T09:46:43;102064.16;;;12.16;63.76
10510;BME280;5303;53.266;10.410;2023-05-07T09:49:20;102066.84;;;12.17;62.63
10510;BME280;5303;53.266;10.410;2023-05-07T09:51:49;102071.28;;;12.20;62.87
10510;BME280;5303;53.266;10.410;2023-05-07T09:54:16;102072.19;;;12.25;62.52
10510;BME280;5303;53.266;10.410;2023-05-07T09:56:43;102066.03;;;12.26;63.30
10510;BME280;5303;53.266;10.410;2023-05-07T09:59:13;102074.84;;;12.25;63.33
10510;BME280;5303;53.266;10.410;2023-05-07T10:01:41;102074.84;;;12.25;62.98
10510;BME280;5303;53.266;10.410;2023-05-07T10:04:07;102082.72;;;12.17;63.37
10510;BME280;5303;53.266;10.410;2023-05-07T10:06:34;102082.84;;;12.31;62.81
10510;BME280;5303;53.266;10.410;2023-05-07T10:09:01;102081.94;;;12.29;63.01
10510;BME280;5303;53.266;10.410;2023-05-07T10:11:26;102084.63;;;12.35;61.53
10510;BME280;5303;53.266;10.410;2023-05-07T10:13:52;102082.88;;;12.35;62.65
10510;BME280;5303;53.266;10.410;2023-05-07T10:16:18;102084.63;;;12.35;62.73
10510;BME280;5303;53.266;10.410;2023-05-07T10:18:44;102084.69;;;12.39;63.03
10510;BME280;5303;53.266;10.410;2023-05-07T10:21:17;102075.00;;;12.40;63.21
10510;BME280;5303;53.266;10.410;2023-05-07T10:23:50;102079.59;;;12.58;62.04
10510;BME280;5303;53.266;10.410;2023-05-07T10:26:17;102082.09;;;12.44;62.19
10510;BME280;5303;53.266;10.410;2023-05-07T10:28:45;102076.00;;;12.56;63.26
10510;BME280;5303;53.266;10.410;2023-05-07T10:31:37;102074.41;;;12.72;61.89
10510;BME280;5303;53.266;10.410;2023-05-07T10:34:11;102076.31;;;12.88;60.37
10510;BME280;5303;53.266;10.410;2023-05-07T10:36:38;102077.28;;;12.97;59.48
10510;BME280;5303;53.266;10.410;2023-05-07T10:39:05;102074.63;;;12.97;60.43
10510;BME280;5303;53.266;10.410;2023-05-07T10:41:31;102074.50;;;12.85;60.96
10510;BME280;5303;53.266;10.410;2023-05-07T10:43:56;102077.28;;;13.02;60.53
10510;BME280;5303;53.266;10.410;2023-05-07T10:46:22;102076.41;;;13.02;61.11
10510;BME280;5303;53.266;10.410;2023-05-07T10:49:06;102085.25;;;13.05;59.55
10510;BME280;5303;53.266;10.410;2023-05-07T10:51:32;102076.56;;;13.21;59.70
10510;BME280;5303;53.266;10.410;2023-05-07T10:56:39;102078.97;;;12.92;59.84
10510;BME280;5303;53.266;10.410;2023-05-07T11:02:00;102083.38;;;12.87;60.66
10510;BME280;5303;53.266;10.410;2023-05-07T11:04:31;102077.13;;;12.84;60.04
10510;BME280;5303;53.266;10.410;2023-05-07T11:15:12;102068.63;;;13.24;60.34
10510;BME280;5303;53.266;10.410;2023-05-07T11:17:57;102070.50;;;13.47;59.89
10510;BME280;5303;53.266;10.410;2023-05-07T11:26:08;102069.84;;;13.91;58.49
10510;BME280;5303;53.266;10.410;2023-05-07T11:28:38;102070.75;;;14.05;56.97
10510;BME280;5303;53.266;10.410;2023-05-07T11:31:04;102076.91;;;13.95;56.59
10510;BME280;5303;53.266;10.410;2023-05-07T11:33:30;102079.59;;;14.02;56.71
10510;BME280;5303;53.266;10.410;2023-05-07T11:35:56;102069.00;;;14.16;56.16
10510;BME280;5303;53.266;10.410;2023-05-07T11:38:22;102070.75;;;14.00;56.66
10510;BME280;5303;53.266;10.410;2023-05-07T11:40:55;102071.66;;;14.10;56.44
10510;BME280;5303;53.266;10.410;2023-05-07T11:43:21;102077.88;;;14.24;57.31
10510;BME280;5303;53.266;10.410;2023-05-07T11:45:47;102079.69;;;14.44;55.64
10510;BME280;5303;53.266;10.410;2023-05-07T11:48:13;102077.00;;;14.39;56.08
10510;BME280;5303;53.266;10.410;2023-05-07T11:50:52;102070.81;;;14.38;57.03
10510;BME280;5303;53.266;10.410;2023-05-07T11:53:18;102074.41;;;14.66;56.50
10510;BME280;5303;53.266;10.410;2023-05-07T11:55:44;102070.00;;;14.68;55.54
10510;BME280;5303;53.266;10.410;2023-05-07T11:58:10;102070.88;;;14.75;55.70
10510;BME280;5303;53.266;10.410;2023-05-07T12:00:36;102069.09;;;14.77;55.38
10510;BME280;5303;53.266;10.410;2023-05-07T12:03:05;102064.66;;;14.90;55.07
10510;BME280;5303;53.266;10.410;2023-05-07T12:05:30;102067.34;;;14.94;55.93
10510;BME280;5303;53.266;10.410;2023-05-07T12:07:58;102061.06;;;15.31;54.92
10510;BME280;5303;53.266;10.410;2023-05-07T12:10:23;102058.38;;;15.38;53.68
10510;BME280;5303;53.266;10.410;2023-05-07T12:12:50;102063.63;;;15.60;53.70
10510;BME280;5303;53.266;10.410;2023-05-07T12:15:17;102064.44;;;15.83;54.90
10510;BME280;5303;53.266;10.410;2023-05-07T12:17:42;102064.38;;;15.97;53.87
10510;BME280;5303;53.266;10.410;2023-05-07T12:20:09;102059.91;;;16.00;51.88
10510;BME280;5303;53.266;10.410;2023-05-07T12:22:35;102066.03;;;16.13;51.10
10510;BME280;5303;53.266;10.410;2023-05-07T12:25:01;102063.31;;;16.24;51.24
10510;BME280;5303;53.266;10.410;2023-05-07T12:27:27;102058.91;;;16.26;51.82
10510;BME280;5303;53.266;10.410;2023-05-07T12:29:52;102052.56;;;16.40;51.21
10510;BME280;5303;53.266;10.410;2023-05-07T12:32:20;102056.06;;;16.47;49.32
10510;BME280;5303;53.266;10.410;2023-05-07T12:34:49;102053.28;;;16.62;50.36
10510;BME280;5303;53.266;10.410;2023-05-07T12:37:14;102056.88;;;16.58;50.32
10510;BME280;5303;53.266;10.410;2023-05-07T12:39:50;102059.53;;;16.60;50.13
10510;BME280;5303;53.266;10.410;2023-05-07T12:42:32;102046.91;;;16.83;49.63
10510;BME280;5303;53.266;10.410;2023-05-07T12:44:58;102051.56;;;16.55;49.16
10510;BME280;5303;53.266;10.410;2023-05-07T12:47:23;102051.53;;;16.58;49.97
10510;BME280;5303;53.266;10.410;2023-05-07T12:49:49;102049.84;;;16.48;50.65
10510;BME280;5303;53.266;10.410;2023-05-07T12:52:14;102057.03;;;16.38;51.35
10510;BME280;5303;53.266;10.410;2023-05-07T12:54:39;102058.09;;;16.15;50.02
10510;BME280;5303;53.266;10.410;2023-05-07T12:57:07;102054.50;;;16.19;50.74
10510;BME280;5303;53.266;10.410;2023-05-07T13:01:58;102052.97;;;15.72;51.05
10510;BME280;5303;53.266;10.410;2023-05-07T13:04:26;102045.84;;;15.80;51.99
10510;BME280;5303;53.266;10.410;2023-05-07T13:06:52;102039.59;;;15.87;51.90
10510;BME280;5303;53.266;10.410;2023-05-07T13:09:17;102048.47;;;15.83;51.68
10510;BME280;5303;53.266;10.410;2023-05-07T13:11:42;102040.59;;;15.49;52.04